Time;durP1;ratioP1;P1;durP2;ratioP2;P2;SDS_P1;SDS_P2;PMS_P1;PMS_P2;Temp;Humidity;BMP_temperature;BMP_pressure;BME280_temperature;BME280_humidity;BME280_pressure;Samples;Min_cycle;Max_cycle;Signal;HPM_P1;HPM_P2
2022/12/05 00:00:31;;;;;;;14.88;5.22;;;;;;;;;;5054609;28;20407;-73
2022/12/05 00:02:57;;;;;;;19.67;4.80;;;;;;;;;;5059424;28;20023;-74
2022/12/05 00:05:23;;;;;;;22.15;6.25;;;;;;;;;;5055870;28;20480;-73
2022/12/05 00:07:49;;;;;;;18.50;4.88;;;;;;;;;;5063306;28;20469;-75
2022/12/05 00:10:16;;;;;;;17.50;4.50;;;;;;;;;;5060586;28;20032;-75
2022/12/05 00:12:42;;;;;;;20.38;5.22;;;;;;;;;;5066096;28;20029;-75
2022/12/05 00:15:11;;;;;;;20.08;5.63;;;;;;;;;;5062470;28;20017;-73
2022/12/05 00:17:38;;;;;;;19.58;5.30;;;;;;;;;;5067416;28;20032;-75
2022/12/05 00:20:05;;;;;;;20.15;5.05;;;;;;;;;;5065406;28;20652;-74
2022/12/05 00:22:31;;;;;;;26.38;5.63;;;;;;;;;;5065187;28;20161;-74
2022/12/05 00:24:57;;;;;;;21.45;5.63;;;;;;;;;;5067602;28;20085;-75
2022/12/05 00:27:23;;;;;;;18.77;4.43;;;;;;;;;;5063636;28;20024;-75
2022/12/05 00:29:49;;;;;;;17.05;3.97;;;;;;;;;;5063788;28;20028;-75
2022/12/05 00:32:15;;;;;;;16.15;4.85;;;;;;;;;;5067039;28;20029;-75
2022/12/05 00:34:42;;;;;;;21.88;5.45;;;;;;;;;;5066393;28;20028;-75
2022/12/05 00:37:08;;;;;;;23.40;4.97;;;;;;;;;;5066901;28;20015;-76
2022/12/05 00:39:34;;;;;;;18.75;5.20;;;;;;;;;;5066733;28;20030;-73
2022/12/05 00:42:00;;;;;;;19.20;4.50;;;;;;;;;;5065770;28;20621;-75
2022/12/05 00:44:26;;;;;;;13.18;4.45;;;;;;;;;;5067960;28;20064;-75
2022/12/05 00:46:52;;;;;;;21.45;6.07;;;;;;;;;;5068287;28;20037;-74
2022/12/05 00:49:19;;;;;;;22.40;5.05;;;;;;;;;;5067097;28;20114;-76
2022/12/05 00:51:45;;;;;;;20.52;5.90;;;;;;;;;;5064232;28;20192;-74
2022/12/05 00:54:13;;;;;;;21.38;5.18;;;;;;;;;;5064923;28;20040;-76
2022/12/05 00:56:39;;;;;;;24.42;5.22;;;;;;;;;;5069370;28;20024;-75
2022/12/05 00:59:06;;;;;;;17.95;5.35;;;;;;;;;;5069981;28;20488;-75
2022/12/05 01:01:36;;;;;;;21.35;6.07;;;;;;;;;;5069525;28;20036;-75
2022/12/05 01:04:04;;;;;;;18.05;4.95;;;;;;;;;;5068948;28;20111;-74
2022/12/05 01:06:30;;;;;;;19.90;6.00;;;;;;;;;;5067484;28;20024;-75
2022/12/05 01:08:57;;;;;;;19.23;5.10;;;;;;;;;;5069829;28;20178;-75
2022/12/05 01:11:24;;;;;;;22.75;5.72;;;;;;;;;;5084369;28;20432;-75
2022/12/05 01:13:50;;;;;;;23.80;5.45;;;;;;;;;;5069062;28;20129;-76
2022/12/05 01:16:17;;;;;;;26.17;5.53;;;;;;;;;;5059966;28;20036;-73
2022/12/05 01:18:44;;;;;;;26.58;6.13;;;;;;;;;;5052626;28;20020;-73
2022/12/05 01:21:10;;;;;;;22.70;5.43;;;;;;;;;;5056398;28;20052;-76
2022/12/05 01:23:36;;;;;;;21.98;5.93;;;;;;;;;;5056830;28;20480;-75
2022/12/05 01:26:05;;;;;;;25.83;5.28;;;;;;;;;;5059791;28;20037;-75
2022/12/05 01:28:32;;;;;;;20.80;5.90;;;;;;;;;;5054265;28;20066;-75
2022/12/05 01:30:58;;;;;;;17.52;5.43;;;;;;;;;;5060927;28;20032;-75
2022/12/05 01:33:24;;;;;;;17.92;4.95;;;;;;;;;;5058863;28;20770;-75
2022/12/05 01:35:50;;;;;;;20.98;4.70;;;;;;;;;;5057631;28;20032;-75
2022/12/05 01:38:16;;;;;;;21.38;5.75;;;;;;;;;;5061615;28;20044;-75
2022/12/05 01:40:42;;;;;;;22.00;6.20;;;;;;;;;;5060974;28;20405;-75
2022/12/05 01:43:16;;;;;;;25.40;6.05;;;;;;;;;;5060100;28;20052;-75
2022/12/05 01:45:44;;;;;;;21.02;5.28;;;;;;;;;;5047987;28;20063;-75
2022/12/05 01:48:16;;;;;;;14.32;5.72;;;;;;;;;;5073291;28;20106;-75
2022/12/05 01:50:42;;;;;;;21.23;6.45;;;;;;;;;;5059645;28;20124;-75
2022/12/05 01:53:09;;;;;;;27.83;6.68;;;;;;;;;;5056978;28;20111;-74
2022/12/05 01:55:35;;;;;;;25.17;4.93;;;;;;;;;;5052505;28;20021;-73
2022/12/05 01:58:03;;;;;;;23.73;6.68;;;;;;;;;;5052319;28;20040;-75
2022/12/05 02:00:29;;;;;;;25.95;5.63;;;;;;;;;;5048930;28;20204;-76
2022/12/05 02:02:57;;;;;;;18.25;5.45;;;;;;;;;;5053156;28;20021;-75
2022/12/05 02:05:27;;;;;;;25.52;5.45;;;;;;;;;;5054855;28;20050;-72
2022/12/05 02:07:53;;;;;;;17.42;6.30;;;;;;;;;;5053690;28;20056;-75
2022/12/05 02:10:19;;;;;;;15.50;4.88;;;;;;;;;;5049657;28;20451;-75
2022/12/05 02:12:46;;;;;;;19.65;6.28;;;;;;;;;;5057110;28;20074;-75
2022/12/05 02:15:25;;;;;;;18.40;5.80;;;;;;;;;;5059234;28;20028;-75
2022/12/05 02:18:01;;;;;;;21.15;5.47;;;;;;;;;;5059785;28;20021;-75
2022/12/05 02:20:30;;;;;;;22.90;5.63;;;;;;;;;;5055489;28;20024;-75
2022/12/05 02:23:07;;;;;;;20.63;5.38;;;;;;;;;;5046089;28;20021;-75
2022/12/05 02:25:42;;;;;;;20.65;5.20;;;;;;;;;;5059187;28;20029;-75
2022/12/05 02:28:24;;;;;;;31.10;5.75;;;;;;;;;;5055291;28;20020;-73
2022/12/05 02:30:50;;;;;;;17.35;5.40;;;;;;;;;;5056222;28;20096;-75
2022/12/05 02:33:23;;;;;;;22.58;5.55;;;;;;;;;;5052636;28;20025;-75
2022/12/05 02:35:52;;;;;;;25.08;5.47;;;;;;;;;;5062255;28;20025;-73
2022/12/05 02:38:18;;;;;;;27.63;5.88;;;;;;;;;;5055085;28;20027;-75
2022/12/05 02:40:59;;;;;;;27.42;6.32;;;;;;;;;;5050739;28;20445;-75
2022/12/05 02:43:30;;;;;;;20.75;5.63;;;;;;;;;;5054184;28;20032;-75
2022/12/05 02:45:59;;;;;;;22.07;5.87;;;;;;;;;;5056013;28;20075;-75
2022/12/05 02:48:27;;;;;;;21.75;5.72;;;;;;;;;;5056553;28;20052;-74
2022/12/05 02:50:54;;;;;;;23.58;6.03;;;;;;;;;;5055217;28;20068;-74
2022/12/05 02:53:21;;;;;;;25.85;5.25;;;;;;;;;;5052262;28;20020;-74
2022/12/05 02:55:47;;;;;;;23.92;5.00;;;;;;;;;;5057521;28;20029;-75
2022/12/05 02:58:21;;;;;;;22.73;6.00;;;;;;;;;;5050318;28;20106;-73
2022/12/05 03:00:48;;;;;;;25.45;5.32;;;;;;;;;;5057906;28;20020;-74
2022/12/05 03:03:17;;;;;;;24.08;5.35;;;;;;;;;;5062215;28;20028;-73
2022/12/05 03:05:54;;;;;;;18.80;5.50;;;;;;;;;;5054226;28;20249;-75
2022/12/05 03:08:23;;;;;;;31.05;7.28;;;;;;;;;;5051270;28;20061;-75
2022/12/05 03:10:49;;;;;;;17.58;5.30;;;;;;;;;;5049003;28;20673;-75
2022/12/05 03:13:19;;;;;;;24.45;5.30;;;;;;;;;;5058166;28;20103;-74
2022/12/05 03:15:47;;;;;;;18.45;4.97;;;;;;;;;;5054048;28;20481;-75
2022/12/05 03:18:17;;;;;;;17.83;5.22;;;;;;;;;;5056441;28;20048;-76
2022/12/05 03:20:56;;;;;;;23.40;5.07;;;;;;;;;;5051545;28;20629;-73
2022/12/05 03:23:24;;;;;;;27.73;5.47;;;;;;;;;;5052060;28;20096;-75
2022/12/05 03:26:10;;;;;;;16.10;5.45;;;;;;;;;;5052735;28;20045;-75
2022/12/05 03:28:56;;;;;;;19.83;5.95;;;;;;;;;;5052539;28;20028;-75
2022/12/05 03:31:32;;;;;;;21.50;5.13;;;;;;;;;;5057794;28;20024;-75
2022/12/05 03:34:00;;;;;;;23.13;5.50;;;;;;;;;;5053049;28;20036;-75
2022/12/05 03:36:31;;;;;;;23.50;5.60;;;;;;;;;;5055337;28;20029;-74
2022/12/05 03:39:00;;;;;;;22.73;5.07;;;;;;;;;;5055900;28;20086;-75
2022/12/05 03:41:38;;;;;;;29.33;6.05;;;;;;;;;;5055052;28;20070;-75
2022/12/05 03:44:12;;;;;;;17.75;4.68;;;;;;;;;;5052118;28;20112;-75
2022/12/05 03:46:44;;;;;;;16.58;5.30;;;;;;;;;;5051874;28;20627;-76
2022/12/05 03:49:17;;;;;;;19.88;5.28;;;;;;;;;;5060283;28;20028;-75
2022/12/05 03:52:03;;;;;;;28.23;6.35;;;;;;;;;;5049280;28;20028;-75
2022/12/05 03:54:34;;;;;;;21.63;5.90;;;;;;;;;;5044901;28;20044;-75
2022/12/05 03:57:07;;;;;;;13.93;4.93;;;;;;;;;;5054339;28;20027;-76
2022/12/05 03:59:33;;;;;;;23.75;5.43;;;;;;;;;;5050526;28;20028;-74
2022/12/05 04:02:01;;;;;;;20.10;6.03;;;;;;;;;;5057265;28;20063;-75
2022/12/05 04:04:31;;;;;;;23.90;6.75;;;;;;;;;;5057744;28;20601;-73
2022/12/05 04:06:58;;;;;;;21.77;6.65;;;;;;;;;;5055179;28;20040;-74
2022/12/05 04:09:29;;;;;;;18.05;5.43;;;;;;;;;;5055408;28;20039;-75
2022/12/05 04:11:59;;;;;;;25.27;6.43;;;;;;;;;;5056480;28;20136;-75
2022/12/05 04:14:33;;;;;;;27.98;6.63;;;;;;;;;;5060999;28;20542;-75
2022/12/05 04:17:08;;;;;;;22.13;6.65;;;;;;;;;;5054744;28;20032;-75
2022/12/05 04:22:35;;;;;;;26.13;6.72;;;;;;;;;;5056324;28;20175;-75
2022/12/05 04:28:02;;;;;;;19.80;4.75;;;;;;;;;;5057109;28;20113;-74
2022/12/05 04:30:35;;;;;;;23.20;5.68;;;;;;;;;;5054276;28;20032;-75
2022/12/05 04:33:04;;;;;;;20.77;4.53;;;;;;;;;;5056044;28;20116;-74
2022/12/05 04:35:34;;;;;;;17.77;4.38;;;;;;;;;;5051831;28;20032;-76
2022/12/05 04:38:03;;;;;;;21.35;4.15;;;;;;;;;;5050580;28;20077;-75
2022/12/05 04:40:38;;;;;;;27.73;4.53;;;;;;;;;;5052282;28;20077;-75
2022/12/05 04:43:05;;;;;;;20.58;3.63;;;;;;;;;;5054656;28;20024;-74
2022/12/05 04:45:32;;;;;;;15.95;4.07;;;;;;;;;;5058532;28;20034;-75
2022/12/05 04:48:01;;;;;;;23.17;4.25;;;;;;;;;;5053612;28;20035;-75
2022/12/05 04:50:29;;;;;;;17.63;3.40;;;;;;;;;;5057389;28;20040;-75
2022/12/05 04:52:57;;;;;;;16.30;3.15;;;;;;;;;;5045894;28;20085;-75
2022/12/05 04:55:28;;;;;;;14.50;3.78;;;;;;;;;;5057097;28;20154;-73
2022/12/05 04:58:07;;;;;;;17.98;4.85;;;;;;;;;;5049026;28;20028;-74
2022/12/05 05:00:35;;;;;;;16.42;4.97;;;;;;;;;;5053977;28;20075;-75
2022/12/05 05:03:25;;;;;;;18.92;4.05;;;;;;;;;;5057929;28;20037;-75
2022/12/05 05:05:52;;;;;;;22.10;4.00;;;;;;;;;;5043804;28;20666;-75
2022/12/05 05:08:20;;;;;;;17.52;5.03;;;;;;;;;;5062171;28;20748;-75
2022/12/05 05:10:54;;;;;;;16.65;3.70;;;;;;;;;;5058330;28;20201;-76
2022/12/05 05:13:21;;;;;;;25.15;5.40;;;;;;;;;;5053634;28;20044;-72
2022/12/05 05:15:47;;;;;;;21.15;4.28;;;;;;;;;;5059014;28;20074;-75
2022/12/05 05:18:13;;;;;;;10.93;3.75;;;;;;;;;;5055974;28;20096;-75
2022/12/05 05:20:39;;;;;;;15.65;4.22;;;;;;;;;;5059569;28;20016;-75
2022/12/05 05:23:05;;;;;;;13.35;4.63;;;;;;;;;;5057440;28;20038;-74
2022/12/05 05:25:31;;;;;;;14.52;4.88;;;;;;;;;;5059295;28;20040;-74
2022/12/05 05:27:57;;;;;;;21.08;4.22;;;;;;;;;;5053857;28;20029;-73
2022/12/05 05:30:24;;;;;;;17.42;5.28;;;;;;;;;;5056892;28;20056;-75
2022/12/05 05:32:50;;;;;;;21.48;5.68;;;;;;;;;;5055208;28;20024;-75
2022/12/05 05:35:17;;;;;;;13.50;4.88;;;;;;;;;;5059089;28;20473;-75
2022/12/05 05:37:43;;;;;;;19.63;5.47;;;;;;;;;;5057609;28;20116;-75
2022/12/05 05:40:11;;;;;;;19.10;5.65;;;;;;;;;;5057707;28;20132;-72
2022/12/05 05:42:41;;;;;;;19.90;5.32;;;;;;;;;;5055002;28;20536;-73
2022/12/05 05:45:08;;;;;;;22.33;4.80;;;;;;;;;;5050006;28;20041;-76
2022/12/05 05:47:34;;;;;;;23.45;5.97;;;;;;;;;;5070892;28;20032;-75
2022/12/05 05:50:00;;;;;;;23.05;5.07;;;;;;;;;;5058666;28;20056;-75
2022/12/05 05:52:26;;;;;;;18.10;4.90;;;;;;;;;;5056330;28;20067;-76
2022/12/05 05:54:52;;;;;;;25.85;6.20;;;;;;;;;;5056813;28;20412;-75
2022/12/05 05:57:18;;;;;;;22.40;6.32;;;;;;;;;;5056688;28;20102;-74
2022/12/05 05:59:45;;;;;;;17.08;5.10;;;;;;;;;;5060639;28;20066;-75
2022/12/05 06:02:11;;;;;;;15.70;5.10;;;;;;;;;;5052309;28;20037;-76
2022/12/05 06:04:37;;;;;;;25.90;6.15;;;;;;;;;;5055929;28;20024;-76
2022/12/05 06:07:03;;;;;;;21.10;4.53;;;;;;;;;;5059830;28;20039;-75
2022/12/05 06:09:30;;;;;;;30.23;6.00;;;;;;;;;;5055034;28;20024;-76
2022/12/05 06:11:56;;;;;;;17.90;5.43;;;;;;;;;;5059334;28;20033;-74
2022/12/05 06:14:22;;;;;;;18.10;4.32;;;;;;;;;;5051102;28;20504;-72
2022/12/05 06:16:48;;;;;;;14.38;3.72;;;;;;;;;;5060923;28;20024;-76
2022/12/05 06:19:14;;;;;;;18.55;4.80;;;;;;;;;;5050727;28;20028;-76
2022/12/05 06:21:40;;;;;;;14.75;5.40;;;;;;;;;;5060778;28;20033;-77
2022/12/05 06:24:07;;;;;;;10.98;3.58;;;;;;;;;;5059503;28;20179;-77
2022/12/05 06:26:33;;;;;;;18.83;4.22;;;;;;;;;;5060329;28;20037;-77
2022/12/05 06:28:59;;;;;;;19.48;4.47;;;;;;;;;;5058084;28;20702;-76
2022/12/05 06:31:29;;;;;;;21.13;4.20;;;;;;;;;;5059866;28;20024;-74
2022/12/05 06:33:59;;;;;;;21.95;4.25;;;;;;;;;;5057016;28;20025;-73
2022/12/05 06:36:25;;;;;;;18.55;5.05;;;;;;;;;;5057015;28;20590;-76
2022/12/05 06:38:52;;;;;;;19.15;4.70;;;;;;;;;;5056518;28;20050;-73
2022/12/05 06:41:19;;;;;;;19.27;4.50;;;;;;;;;;5057237;28;20187;-77
2022/12/05 06:43:45;;;;;;;16.58;4.68;;;;;;;;;;5057054;28;20020;-76
2022/12/05 06:46:13;;;;;;;23.75;4.70;;;;;;;;;;5060903;28;20590;-77
2022/12/05 06:48:39;;;;;;;15.25;4.43;;;;;;;;;;5054936;28;20021;-76
2022/12/05 06:51:08;;;;;;;18.63;4.68;;;;;;;;;;5057687;28;20047;-76
2022/12/05 06:53:34;;;;;;;19.05;5.20;;;;;;;;;;5051056;28;20025;-76
2022/12/05 06:56:02;;;;;;;17.13;4.38;;;;;;;;;;5058876;28;20770;-75
2022/12/05 06:58:29;;;;;;;18.50;4.50;;;;;;;;;;5056789;28;20074;-76
2022/12/05 07:03:42;;;;;;;19.05;4.15;;;;;;;;;;5056955;28;20031;-77
2022/12/05 07:06:08;;;;;;;22.92;4.95;;;;;;;;;;5060388;28;20029;-77
2022/12/05 07:08:35;;;;;;;13.45;3.85;;;;;;;;;;5055866;28;20021;-77
2022/12/05 07:11:01;;;;;;;20.25;3.72;;;;;;;;;;5062637;28;20469;-77
2022/12/05 07:13:28;;;;;;;15.80;4.10;;;;;;;;;;5054735;28;20101;-74
2022/12/05 07:15:54;;;;;;;27.15;5.30;;;;;;;;;;5055632;28;20024;-70
2022/12/05 07:18:20;;;;;;;23.33;4.50;;;;;;;;;;5053945;28;20664;-72
2022/12/05 07:20:55;;;;;;;19.38;4.30;;;;;;;;;;5056639;28;20058;-74
2022/12/05 07:23:21;;;;;;;23.35;5.28;;;;;;;;;;5057334;28;20017;-73
2022/12/05 07:25:47;;;;;;;15.02;4.13;;;;;;;;;;5057804;28;20040;-71
2022/12/05 07:28:13;;;;;;;18.00;3.80;;;;;;;;;;5055228;28;20019;-71
2022/12/05 07:30:40;;;;;;;23.77;6.43;;;;;;;;;;5055692;28;20033;-71
2022/12/05 07:33:06;;;;;;;20.92;5.28;;;;;;;;;;5050355;28;20021;-71
2022/12/05 07:35:32;;;;;;;24.00;5.50;;;;;;;;;;5053702;28;20027;-71
2022/12/05 07:37:58;;;;;;;23.20;5.55;;;;;;;;;;5051437;28;20028;-71
2022/12/05 07:40:24;;;;;;;19.35;4.60;;;;;;;;;;5053432;28;20485;-72
2022/12/05 07:42:52;;;;;;;16.00;3.92;;;;;;;;;;5056617;28;20921;-71
2022/12/05 07:45:19;;;;;;;16.98;4.10;;;;;;;;;;5058258;28;20054;-71
2022/12/05 07:47:45;;;;;;;16.83;3.78;;;;;;;;;;5057648;28;20033;-71
2022/12/05 07:50:12;;;;;;;21.15;3.60;;;;;;;;;;5059434;28;20036;-72
2022/12/05 07:52:38;;;;;;;21.25;4.05;;;;;;;;;;5055295;28;20657;-71
2022/12/05 07:55:05;;;;;;;17.63;3.78;;;;;;;;;;5055854;28;20073;-71
2022/12/05 07:57:31;;;;;;;14.45;4.13;;;;;;;;;;5054340;28;20426;-73
2022/12/05 07:59:57;;;;;;;15.20;2.97;;;;;;;;;;5059184;28;20024;-72
2022/12/05 08:02:23;;;;;;;14.10;3.63;;;;;;;;;;5054672;28;20033;-71
2022/12/05 08:04:50;;;;;;;11.93;3.95;;;;;;;;;;5055378;28;20033;-73
2022/12/05 08:07:16;;;;;;;17.60;3.83;;;;;;;;;;5056323;28;20033;-72
2022/12/05 08:09:42;;;;;;;15.85;3.47;;;;;;;;;;5055042;28;20538;-72
2022/12/05 08:12:09;;;;;;;12.57;3.80;;;;;;;;;;5060572;28;20097;-72
2022/12/05 08:14:35;;;;;;;16.67;3.55;;;;;;;;;;5052487;28;20029;-72
2022/12/05 08:17:01;;;;;;;17.17;4.15;;;;;;;;;;5055520;28;20055;-70
2022/12/05 08:19:27;;;;;;;16.27;4.05;;;;;;;;;;5076516;28;20044;-71
2022/12/05 08:21:54;;;;;;;14.30;4.45;;;;;;;;;;5060881;28;20037;-71
2022/12/05 08:24:20;;;;;;;17.00;5.13;;;;;;;;;;5061130;28;20055;-72
2022/12/05 08:26:46;;;;;;;14.60;4.45;;;;;;;;;;5058017;28;20072;-71
2022/12/05 08:29:13;;;;;;;19.55;5.30;;;;;;;;;;5064832;28;20016;-71
2022/12/05 08:31:46;;;;;;;18.90;4.22;;;;;;;;;;5066545;28;20098;-72
2022/12/05 08:34:12;;;;;;;16.40;4.10;;;;;;;;;;5065139;28;20460;-72
2022/12/05 08:36:39;;;;;;;24.25;5.28;;;;;;;;;;5069159;28;20017;-72
2022/12/05 08:39:06;;;;;;;13.25;3.83;;;;;;;;;;5066218;28;20024;-71
2022/12/05 08:41:33;;;;;;;15.18;5.28;;;;;;;;;;5058315;28;20023;-75
2022/12/05 08:44:01;;;;;;;15.95;6.00;;;;;;;;;;5066243;28;20526;-75
2022/12/05 08:46:28;;;;;;;22.88;4.97;;;;;;;;;;5061518;28;20124;-75
2022/12/05 08:48:54;;;;;;;18.30;4.97;;;;;;;;;;5059114;28;20054;-75
2022/12/05 08:51:20;;;;;;;14.73;4.93;;;;;;;;;;5063905;28;20664;-75
2022/12/05 08:53:47;;;;;;;31.40;7.07;;;;;;;;;;5060563;28;20520;-75
2022/12/05 08:56:13;;;;;;;17.65;6.40;;;;;;;;;;5062035;28;20024;-75
2022/12/05 08:58:39;;;;;;;18.08;5.68;;;;;;;;;;5065929;28;20563;-75
2022/12/05 09:01:06;;;;;;;25.20;5.90;;;;;;;;;;5062613;28;20013;-75
2022/12/05 09:03:32;;;;;;;27.95;5.95;;;;;;;;;;5065521;28;20026;-75
2022/12/05 09:06:06;;;;;;;17.90;5.38;;;;;;;;;;5061612;28;21498;-75
2022/12/05 09:08:32;;;;;;;23.75;6.03;;;;;;;;;;5063359;28;20549;-76
2022/12/05 09:10:58;;;;;;;18.88;5.25;;;;;;;;;;5077543;28;20914;-75
2022/12/05 09:13:24;;;;;;;14.93;4.00;;;;;;;;;;5063317;28;20092;-75
2022/12/05 09:15:51;;;;;;;16.60;4.03;;;;;;;;;;5062014;28;20024;-75
2022/12/05 09:18:17;;;;;;;15.98;3.63;;;;;;;;;;5063963;28;20020;-75
2022/12/05 09:20:43;;;;;;;18.35;3.47;;;;;;;;;;5062587;28;20032;-74
2022/12/05 09:23:09;;;;;;;15.40;3.75;;;;;;;;;;5058848;28;20024;-76
2022/12/05 09:25:35;;;;;;;12.90;4.57;;;;;;;;;;5065337;28;20033;-75
2022/12/05 09:28:01;;;;;;;24.52;5.97;;;;;;;;;;5067374;28;20028;-74
2022/12/05 09:30:27;;;;;;;22.63;6.20;;;;;;;;;;5068280;28;20043;-75
2022/12/05 09:32:54;;;;;;;20.90;6.68;;;;;;;;;;5062051;28;20082;-76
2022/12/05 09:35:20;;;;;;;26.42;7.00;;;;;;;;;;5064485;28;20100;-75
2022/12/05 09:37:46;;;;;;;19.88;6.30;;;;;;;;;;5072883;28;20043;-75
2022/12/05 09:40:17;;;;;;;19.58;7.10;;;;;;;;;;5058427;28;20029;-75
2022/12/05 09:42:56;;;;;;;20.13;6.40;;;;;;;;;;5059520;28;20155;-76
2022/12/05 09:45:23;;;;;;;20.17;6.28;;;;;;;;;;5057283;28;20679;-75
2022/12/05 09:48:00;;;;;;;19.75;6.50;;;;;;;;;;5062086;28;20512;-76
2022/12/05 09:50:28;;;;;;;16.45;5.35;;;;;;;;;;5057345;28;20416;-75
2022/12/05 09:52:59;;;;;;;19.25;5.57;;;;;;;;;;5057982;28;20020;-75
2022/12/05 09:55:29;;;;;;;19.10;5.45;;;;;;;;;;5064185;28;20031;-75
2022/12/05 09:58:00;;;;;;;19.92;5.72;;;;;;;;;;5059354;28;20025;-74
2022/12/05 10:00:28;;;;;;;28.33;5.88;;;;;;;;;;5062824;28;20017;-75
2022/12/05 10:03:20;;;;;;;20.15;4.72;;;;;;;;;;5066516;28;20028;-73
2022/12/05 10:05:52;;;;;;;24.42;4.93;;;;;;;;;;5036856;28;20080;-73
2022/12/05 10:08:24;;;;;;;25.63;5.28;;;;;;;;;;5055479;28;20589;-74
2022/12/05 10:11:00;;;;;;;14.77;4.47;;;;;;;;;;5063273;28;20395;-75
2022/12/05 10:13:37;;;;;;;19.65;4.75;;;;;;;;;;5055706;28;20055;-75
2022/12/05 10:16:06;;;;;;;16.05;3.70;;;;;;;;;;5061680;28;20540;-75
2022/12/05 10:18:55;;;;;;;10.82;4.07;;;;;;;;;;5057659;28;20742;-76
2022/12/05 10:21:32;;;;;;;14.38;4.03;;;;;;;;;;5065596;28;20020;-75
2022/12/05 10:24:09;;;;;;;13.30;4.15;;;;;;;;;;5066801;28;20028;-75
2022/12/05 10:26:38;;;;;;;18.35;4.00;;;;;;;;;;5066858;28;20085;-76
2022/12/05 10:29:14;;;;;;;16.23;4.20;;;;;;;;;;5065281;28;20104;-75
2022/12/05 10:31:41;;;;;;;18.13;3.50;;;;;;;;;;5059306;28;20016;-76
2022/12/05 10:34:25;;;;;;;17.75;3.90;;;;;;;;;;5066806;28;20020;-75
2022/12/05 10:36:57;;;;;;;19.23;4.22;;;;;;;;;;5065070;28;20048;-72
2022/12/05 10:39:23;;;;;;;20.65;4.35;;;;;;;;;;5063442;28;20020;-74
2022/12/05 10:41:49;;;;;;;14.85;3.35;;;;;;;;;;5056230;28;20083;-74
2022/12/05 10:44:15;;;;;;;10.43;3.55;;;;;;;;;;5060050;28;20059;-75
2022/12/05 10:46:42;;;;;;;16.20;3.53;;;;;;;;;;5061222;28;20032;-72
2022/12/05 10:49:11;;;;;;;10.80;3.20;;;;;;;;;;5063608;28;20030;-72
2022/12/05 10:51:38;;;;;;;16.63;3.70;;;;;;;;;;5059126;28;20029;-72
2022/12/05 10:54:21;;;;;;;13.60;3.45;;;;;;;;;;5062889;28;20594;-72
2022/12/05 10:56:49;;;;;;;15.15;3.45;;;;;;;;;;5060204;28;20025;-72
2022/12/05 10:59:16;;;;;;;17.27;4.13;;;;;;;;;;5059452;28;20024;-71
2022/12/05 11:01:48;;;;;;;19.00;3.47;;;;;;;;;;5060950;28;20131;-72
2022/12/05 11:04:20;;;;;;;11.75;2.85;;;;;;;;;;5061145;28;20119;-71
2022/12/05 11:06:54;;;;;;;12.95;3.60;;;;;;;;;;5072761;28;20114;-76
2022/12/05 11:09:22;;;;;;;14.82;3.08;;;;;;;;;;5059864;28;21084;-75
2022/12/05 11:12:03;;;;;;;19.23;3.85;;;;;;;;;;5055307;28;20580;-74
2022/12/05 11:14:32;;;;;;;15.18;3.47;;;;;;;;;;5064404;28;20017;-75
2022/12/05 11:16:59;;;;;;;15.25;3.47;;;;;;;;;;5063661;28;20115;-72
2022/12/05 11:19:28;;;;;;;14.57;3.40;;;;;;;;;;5055644;28;20017;-72
2022/12/05 11:21:54;;;;;;;11.40;2.85;;;;;;;;;;5059901;28;20032;-72
2022/12/05 11:24:22;;;;;;;12.75;4.05;;;;;;;;;;5059814;28;20023;-73
2022/12/05 11:26:48;;;;;;;13.32;3.25;;;;;;;;;;5057518;28;20374;-74
2022/12/05 11:29:28;;;;;;;16.48;3.45;;;;;;;;;;5059373;28;20017;-74
2022/12/05 11:31:54;;;;;;;13.23;3.00;;;;;;;;;;5053224;28;20025;-71
2022/12/05 11:34:22;;;;;;;19.88;3.95;;;;;;;;;;5060088;28;20038;-75
2022/12/05 11:37:01;;;;;;;10.43;3.17;;;;;;;;;;5055609;28;20021;-75
2022/12/05 11:39:27;;;;;;;10.73;3.08;;;;;;;;;;5064986;28;20480;-75
2022/12/05 11:41:56;;;;;;;12.32;3.42;;;;;;;;;;5062337;28;21767;-73
2022/12/05 11:44:22;;;;;;;9.85;3.00;;;;;;;;;;5057745;28;20025;-71
2022/12/05 11:47:04;;;;;;;14.95;3.13;;;;;;;;;;5058164;28;20642;-73
2022/12/05 11:49:36;;;;;;;17.98;4.07;;;;;;;;;;5058162;28;20029;-72
2022/12/05 11:52:05;;;;;;;11.65;3.08;;;;;;;;;;5058774;28;20036;-72
2022/12/05 11:54:54;;;;;;;15.77;3.70;;;;;;;;;;5060459;28;20487;-72
2022/12/05 11:57:39;;;;;;;13.88;3.30;;;;;;;;;;5057964;28;20444;-73
2022/12/05 12:00:25;;;;;;;11.13;3.20;;;;;;;;;;5054887;28;20029;-73
2022/12/05 12:03:10;;;;;;;16.05;3.97;;;;;;;;;;5060990;28;20063;-71
2022/12/05 12:06:00;;;;;;;8.70;3.08;;;;;;;;;;5067420;28;20042;-74
2022/12/05 12:09:02;;;;;;;15.93;3.97;;;;;;;;;;5077385;28;20016;-76
2022/12/05 12:11:31;;;;;;;11.20;2.90;;;;;;;;;;5016397;28;20026;-72
2022/12/05 12:14:03;;;;;;;17.98;5.57;;;;;;;;;;5057829;28;20447;-72
2022/12/05 12:16:29;;;;;;;9.10;5.43;;;;;;;;;;5068016;28;20083;-72
2022/12/05 12:19:02;;;;;;;16.02;5.78;;;;;;;;;;5062243;28;20025;-73
2022/12/05 12:21:40;;;;;;;14.25;5.63;;;;;;;;;;5063447;28;20020;-76
2022/12/05 12:24:15;;;;;;;15.90;5.70;;;;;;;;;;5059926;28;20025;-75
2022/12/05 12:26:54;;;;;;;18.58;6.57;;;;;;;;;;5063195;28;20499;-74
2022/12/05 12:29:23;;;;;;;13.52;3.88;;;;;;;;;;5061917;28;20055;-73
2022/12/05 12:32:11;;;;;;;15.00;3.72;;;;;;;;;;5080973;28;20033;-75
2022/12/05 12:34:55;;;;;;;12.77;3.42;;;;;;;;;;5062968;28;20109;-77
2022/12/05 12:37:34;;;;;;;12.02;3.70;;;;;;;;;;5069878;28;20690;-75
2022/12/05 12:40:18;;;;;;;18.20;3.22;;;;;;;;;;5058892;28;20052;-75
2022/12/05 12:42:49;;;;;;;11.40;2.90;;;;;;;;;;5061812;28;20017;-74
2022/12/05 12:45:22;;;;;;;16.50;3.40;;;;;;;;;;5064396;28;20108;-73
2022/12/05 12:48:07;;;;;;;11.80;2.97;;;;;;;;;;5061509;28;20644;-76
2022/12/05 12:50:34;;;;;;;12.75;3.20;;;;;;;;;;5063727;28;20538;-75
2022/12/05 12:53:03;;;;;;;12.63;3.45;;;;;;;;;;5062073;28;20497;-75
2022/12/05 12:55:32;;;;;;;13.73;4.10;;;;;;;;;;5058908;28;20021;-73
2022/12/05 12:58:17;;;;;;;9.32;3.58;;;;;;;;;;5069749;28;20075;-72
2022/12/05 13:00:46;;;;;;;11.82;4.13;;;;;;;;;;5063045;28;20039;-76
2022/12/05 13:03:16;;;;;;;13.70;5.82;;;;;;;;;;5063223;28;20615;-75
2022/12/05 13:05:45;;;;;;;14.82;5.40;;;;;;;;;;5059924;28;20028;-74
2022/12/05 13:08:21;;;;;;;17.02;4.55;;;;;;;;;;5063198;28;20024;-75
2022/12/05 13:10:48;;;;;;;15.68;4.13;;;;;;;;;;5063686;28;20107;-75
2022/12/05 13:13:26;;;;;;;16.02;5.03;;;;;;;;;;5058794;28;20528;-73
2022/12/05 13:15:54;;;;;;;31.38;4.63;;;;;;;;;;5061772;28;20028;-75
2022/12/05 13:18:22;;;;;;;19.75;5.45;;;;;;;;;;5054729;28;20057;-72
2022/12/05 13:20:50;;;;;;;22.13;4.13;;;;;;;;;;5063384;28;20028;-75
2022/12/05 13:23:19;;;;;;;19.63;4.80;;;;;;;;;;5063423;28;20017;-75
2022/12/05 13:25:46;;;;;;;12.82;3.25;;;;;;;;;;5062489;28;20058;-76
2022/12/05 13:28:25;;;;;;;18.67;4.40;;;;;;;;;;5064427;28;20509;-75
2022/12/05 13:30:57;;;;;;;19.30;3.92;;;;;;;;;;5059012;28;20037;-75
2022/12/05 13:33:31;;;;;;;13.82;3.03;;;;;;;;;;5060968;28;20025;-74
2022/12/05 13:44:34;;;;;;;17.77;3.40;;;;;;;;;;5056880;28;20056;-75
2022/12/05 13:47:00;;;;;;;14.15;2.95;;;;;;;;;;5061411;28;20846;-74
2022/12/05 13:49:32;;;;;;;17.58;3.53;;;;;;;;;;5062353;28;20025;-75
2022/12/05 13:52:10;;;;;;;15.88;3.05;;;;;;;;;;5064421;28;20031;-74
2022/12/05 13:54:43;;;;;;;15.68;2.92;;;;;;;;;;5059665;28;20392;-71
2022/12/05 13:57:29;;;;;;;21.75;4.90;;;;;;;;;;5056691;28;20020;-71
2022/12/05 14:00:05;;;;;;;24.35;3.33;;;;;;;;;;5058392;28;20034;-72
2022/12/05 14:02:46;;;;;;;13.15;3.65;;;;;;;;;;5062323;28;20516;-71
2022/12/05 14:05:17;;;;;;;14.23;3.75;;;;;;;;;;5060567;28;20196;-76
2022/12/05 14:07:44;;;;;;;16.38;3.95;;;;;;;;;;5060642;28;20025;-75
2022/12/05 14:10:30;;;;;;;16.05;3.72;;;;;;;;;;5060452;28;20040;-76
2022/12/05 14:13:01;;;;;;;16.35;3.55;;;;;;;;;;5032663;28;20028;-73
2022/12/05 14:15:30;;;;;;;18.90;4.03;;;;;;;;;;5064675;28;20126;-71
2022/12/05 14:18:01;;;;;;;20.85;3.72;;;;;;;;;;5065996;28;20028;-71
2022/12/05 14:20:27;;;;;;;14.70;3.38;;;;;;;;;;5061143;28;20025;-71
2022/12/05 14:23:09;;;;;;;17.60;3.42;;;;;;;;;;5056776;28;20028;-73
2022/12/05 14:25:41;;;;;;;15.77;3.72;;;;;;;;;;5063625;28;20567;-73
2022/12/05 14:28:10;;;;;;;18.05;5.07;;;;;;;;;;5057555;28;20028;-73
2022/12/05 14:31:07;;;;;;;16.92;3.35;;;;;;;;;;5061849;28;20447;-74
2022/12/05 14:33:33;;;;;;;12.25;3.28;;;;;;;;;;5061235;28;20021;-74
2022/12/05 14:36:05;;;;;;;11.45;2.85;;;;;;;;;;5059159;28;20032;-75
2022/12/05 14:38:33;;;;;;;21.23;3.75;;;;;;;;;;5060523;28;20017;-76
2022/12/05 14:41:13;;;;;;;18.13;4.22;;;;;;;;;;5061404;28;20460;-75
2022/12/05 14:43:40;;;;;;;27.80;4.07;;;;;;;;;;5055025;28;20104;-74
2022/12/05 14:46:30;;;;;;;12.93;4.05;;;;;;;;;;5062586;28;20037;-74
2022/12/05 14:48:56;;;;;;;27.10;5.40;;;;;;;;;;5059373;28;20520;-73
2022/12/05 14:51:43;;;;;;;18.77;4.60;;;;;;;;;;5059077;28;20344;-73
2022/12/05 14:54:15;;;;;;;9.90;3.60;;;;;;;;;;5058602;28;20029;-74
2022/12/05 14:56:43;;;;;;;17.30;4.38;;;;;;;;;;5058105;28;20020;-75
2022/12/05 14:59:27;;;;;;;19.90;4.25;;;;;;;;;;5063188;28;20595;-73
2022/12/05 15:01:58;;;;;;;22.98;4.25;;;;;;;;;;5057234;28;20036;-74
2022/12/05 15:04:35;;;;;;;14.55;3.70;;;;;;;;;;5062226;28;20016;-75